createdAt,value
2019-03-11T00:02:22.533Z,0.60
2019-03-11T00:04:49.713Z,0.50
2019-03-11T00:07:16.766Z,0.50
2019-03-11T00:09:43.894Z,0.50
2019-03-11T00:12:11.129Z,0.50
2019-03-11T00:14:38.301Z,0.50
2019-03-11T00:17:05.554Z,0.60
2019-03-11T00:19:33.918Z,0.60
2019-03-11T00:22:05.281Z,0.50
2019-03-11T00:24:30.217Z,0.50
2019-03-11T00:26:57.580Z,0.40
2019-03-11T00:29:24.710Z,0.50
2019-03-11T00:31:51.880Z,0.50
2019-03-11T00:34:18.960Z,0.50
2019-03-11T00:36:46.103Z,0.50
2019-03-11T00:39:13.606Z,0.50
2019-03-11T00:41:40.712Z,0.60
2019-03-11T00:44:08.664Z,0.60
2019-03-11T00:46:35.666Z,0.60
2019-03-11T00:49:02.712Z,0.70
2019-03-11T00:51:29.797Z,0.70
2019-03-11T00:53:57.071Z,0.70
2019-03-11T00:56:24.097Z,0.70
2019-03-11T00:58:51.225Z,0.80
2019-03-11T01:01:18.317Z,0.80
2019-03-11T01:03:45.372Z,0.80
2019-03-11T01:06:13.483Z,0.80
2019-03-11T01:08:40.646Z,0.90
2019-03-11T01:11:07.834Z,0.90
2019-03-11T01:13:35.314Z,0.90
2019-03-11T01:16:02.427Z,1.00
2019-03-11T01:18:29.488Z,1.00
2019-03-11T01:20:57.414Z,1.00
2019-03-11T01:23:24.605Z,0.90
2019-03-11T01:25:51.768Z,0.90
2019-03-11T01:28:19.797Z,1.00
2019-03-11T01:30:47.164Z,1.00
2019-03-11T01:33:15.225Z,0.90
2019-03-11T01:35:42.309Z,0.90
2019-03-11T01:38:11.170Z,0.90
2019-03-11T01:40:38.178Z,0.90
2019-03-11T01:43:05.207Z,0.90
2019-03-11T01:45:32.293Z,1.30
2019-03-11T01:47:59.454Z,0.90
2019-03-11T01:50:26.534Z,0.90
2019-03-11T01:52:53.633Z,0.90
2019-03-11T01:55:20.681Z,0.90
2019-03-11T01:57:47.666Z,1.00
2019-03-11T02:00:17.382Z,1.00
2019-03-11T02:02:44.449Z,1.00
2019-03-11T02:05:11.615Z,1.00
2019-03-11T02:07:38.712Z,1.00
2019-03-11T02:10:15.920Z,1.00
2019-03-11T02:12:43.065Z,1.00
2019-03-11T02:15:18.126Z,1.00
2019-03-11T02:17:45.212Z,1.00
2019-03-11T02:20:15.954Z,1.00
2019-03-11T02:22:43.121Z,1.00
2019-03-11T02:25:10.550Z,1.00
2019-03-11T02:27:37.755Z,0.90
2019-03-11T02:30:11.302Z,0.90
2019-03-11T02:32:38.358Z,0.90
2019-03-11T02:35:05.507Z,0.90
2019-03-11T02:37:33.642Z,0.90
2019-03-11T02:40:00.731Z,0.90
2019-03-11T02:42:27.810Z,0.90
2019-03-11T02:44:54.840Z,0.90
2019-03-11T02:47:21.926Z,0.90
2019-03-11T02:49:49.076Z,0.90
2019-03-11T02:52:16.143Z,0.90
2019-03-11T02:54:43.366Z,0.90
2019-03-11T02:57:10.419Z,0.90
2019-03-11T02:59:38.373Z,0.90
2019-03-11T03:02:10.089Z,0.90
2019-03-11T03:04:41.917Z,0.90
2019-03-11T03:07:09.066Z,0.90
2019-03-11T03:09:36.207Z,0.80
2019-03-11T03:12:03.406Z,0.90
2019-03-11T03:14:30.528Z,0.80
2019-03-11T03:16:57.741Z,0.80
2019-03-11T03:19:24.862Z,0.80
2019-03-11T03:21:51.980Z,0.70
2019-03-11T03:24:19.062Z,0.80
2019-03-11T03:26:46.188Z,0.70
2019-03-11T03:29:13.386Z,0.70
2019-03-11T03:31:41.359Z,0.80
2019-03-11T03:34:08.587Z,0.80
2019-03-11T03:36:36.147Z,0.80
2019-03-11T03:39:06.073Z,0.90
2019-03-11T03:41:33.150Z,0.90
2019-03-11T03:44:00.406Z,0.90
2019-03-11T03:46:27.608Z,0.90
2019-03-11T03:48:54.722Z,0.80
2019-03-11T03:51:21.769Z,0.80
2019-03-11T03:53:48.814Z,0.80
2019-03-11T03:56:15.864Z,0.80
2019-03-11T03:58:42.882Z,0.70
2019-03-11T04:01:09.929Z,0.70
2019-03-11T04:03:37.332Z,0.70
2019-03-11T04:06:04.368Z,0.70
2019-03-11T04:08:31.441Z,0.70
2019-03-11T04:10:58.422Z,0.70
2019-03-11T04:13:25.485Z,0.80
2019-03-11T04:15:52.608Z,0.80
2019-03-11T04:18:19.610Z,0.80
2019-03-11T04:20:46.752Z,0.80
2019-03-11T04:23:13.798Z,0.80
2019-03-11T04:25:40.789Z,0.70
2019-03-11T04:28:09.668Z,0.80
2019-03-11T04:30:37.127Z,0.80
2019-03-11T04:33:04.238Z,0.80
2019-03-11T04:35:31.316Z,0.70
2019-03-11T04:37:58.411Z,0.70
2019-03-11T04:40:25.612Z,0.70
2019-03-11T04:42:52.699Z,0.70
2019-03-11T04:45:19.850Z,0.70
2019-03-11T04:47:46.998Z,0.60
2019-03-11T04:50:21.937Z,0.70
2019-03-11T04:52:49.089Z,0.60
2019-03-11T04:55:16.417Z,0.60
2019-03-11T04:57:46.333Z,0.70
2019-03-11T05:00:19.483Z,0.60
2019-03-11T05:02:46.476Z,0.70
2019-03-11T05:05:14.660Z,0.70
2019-03-11T05:07:41.631Z,0.50
2019-03-11T05:10:10.440Z,0.70
2019-03-11T05:12:37.438Z,0.70
2019-03-11T05:15:07.110Z,0.80
2019-03-11T05:17:35.357Z,0.80
2019-03-11T05:20:04.965Z,0.80
2019-03-11T05:22:32.145Z,0.70
2019-03-11T05:24:59.319Z,0.80
2019-03-11T05:27:27.262Z,0.80
2019-03-11T05:29:54.411Z,-0.20
2019-03-11T05:32:21.692Z,0.70
2019-03-11T05:34:48.909Z,0.70
2019-03-11T05:37:16.817Z,0.70
2019-03-11T05:39:43.994Z,0.70
2019-03-11T05:42:11.153Z,0.70
2019-03-11T05:44:38.213Z,0.70
2019-03-11T05:47:05.256Z,0.60
2019-03-11T05:49:32.223Z,0.70
2019-03-11T05:51:59.305Z,0.70
2019-03-11T05:54:26.389Z,0.70
2019-03-11T05:56:53.473Z,0.70
2019-03-11T05:59:20.605Z,0.70
2019-03-11T06:01:47.658Z,0.70
2019-03-11T06:04:14.705Z,0.70
2019-03-11T06:06:42.205Z,0.60
2019-03-11T06:09:09.245Z,0.60
2019-03-11T06:11:36.979Z,0.50
2019-03-11T06:14:04.066Z,0.50
2019-03-11T06:16:33.023Z,0.50
2019-03-11T06:19:00.108Z,0.40
2019-03-11T06:21:30.238Z,0.30
2019-03-11T06:23:57.278Z,0.20
2019-03-11T06:26:25.145Z,0.20
2019-03-11T06:28:52.161Z,0.10
2019-03-11T06:31:19.237Z,0.20
2019-03-11T06:33:46.306Z,0.20
2019-03-11T06:36:13.403Z,0.30
2019-03-11T06:38:40.554Z,0.40
2019-03-11T06:41:07.531Z,0.40
2019-03-11T06:43:34.963Z,0.40
2019-03-11T06:46:02.039Z,0.40
2019-03-11T06:48:29.174Z,0.40
2019-03-11T06:50:56.146Z,0.40
2019-03-11T06:53:23.564Z,0.50
2019-03-11T06:55:50.602Z,0.40
2019-03-11T06:58:17.697Z,0.40
2019-03-11T07:00:45.059Z,0.40
2019-03-11T07:03:12.233Z,0.50
2019-03-11T07:05:39.237Z,0.50
2019-03-11T07:08:06.330Z,0.50
2019-03-11T07:10:33.654Z,0.50
2019-03-11T07:13:00.786Z,0.50
2019-03-11T07:15:27.806Z,0.60
2019-03-11T07:17:54.906Z,0.70
2019-03-11T07:20:21.875Z,0.80
2019-03-11T07:22:48.938Z,1.00
2019-03-11T07:25:15.950Z,1.10
2019-03-11T07:27:43.044Z,1.20
2019-03-11T07:30:15.486Z,1.30
2019-03-11T07:32:42.589Z,1.40
2019-03-11T07:35:09.785Z,1.50
2019-03-11T07:37:36.942Z,2.00
2019-03-11T07:40:06.938Z,2.70
2019-03-11T07:42:34.153Z,3.00
2019-03-11T07:45:01.339Z,3.30
2019-03-11T07:47:28.478Z,3.20
2019-03-11T07:49:55.534Z,3.20
2019-03-11T07:52:22.569Z,3.80
2019-03-11T07:54:49.546Z,4.30
2019-03-11T07:57:16.591Z,4.70
2019-03-11T07:59:43.662Z,5.30
2019-03-11T08:02:12.160Z,5.60
2019-03-11T08:04:39.333Z,5.80
2019-03-11T08:07:06.463Z,6.30
2019-03-11T08:09:37.910Z,6.50
2019-03-11T08:12:04.116Z,6.60
2019-03-11T08:14:31.087Z,6.80
2019-03-11T08:16:59.165Z,7.20
2019-03-11T08:19:26.191Z,7.20
2019-03-11T08:21:54.230Z,7.40
2019-03-11T08:24:21.303Z,7.50
2019-03-11T08:26:48.401Z,7.90
2019-03-11T08:29:15.428Z,8.30
2019-03-11T08:31:42.493Z,8.00
2019-03-11T08:34:09.622Z,8.40
2019-03-11T08:36:36.821Z,8.30
2019-03-11T08:39:07.436Z,8.40
2019-03-11T08:41:36.062Z,8.40
2019-03-11T08:44:03.437Z,8.40
2019-03-11T08:46:30.494Z,8.70
2019-03-11T08:48:57.585Z,8.70
2019-03-11T08:51:24.582Z,8.50
2019-03-11T08:53:51.714Z,8.40
2019-03-11T08:56:18.933Z,8.50
2019-03-11T08:58:46.013Z,8.70
2019-03-11T09:01:13.061Z,8.80
2019-03-11T09:03:40.111Z,9.00
2019-03-11T09:06:07.159Z,8.70
2019-03-11T09:08:34.374Z,8.70
2019-03-11T09:11:01.408Z,9.00
2019-03-11T09:13:28.589Z,9.30
2019-03-11T09:15:55.623Z,9.70
2019-03-11T09:18:25.070Z,9.80
2019-03-11T09:20:53.089Z,9.30
2019-03-11T09:23:20.340Z,9.40
2019-03-11T09:25:47.367Z,9.40
2019-03-11T09:28:15.649Z,9.50
2019-03-11T09:30:42.626Z,9.70
2019-03-11T09:33:09.690Z,9.90
2019-03-11T09:35:36.721Z,9.70
2019-03-11T09:38:04.131Z,9.60
2019-03-11T09:40:31.310Z,9.50
2019-03-11T09:42:58.481Z,9.50
2019-03-11T09:45:25.590Z,9.70
2019-03-11T09:47:52.842Z,9.80
2019-03-11T09:50:20.126Z,10.10
2019-03-11T09:52:47.621Z,10.50
2019-03-11T09:55:17.940Z,10.70
2019-03-11T09:57:45.045Z,11.10
2019-03-11T10:00:20.177Z,11.20
2019-03-11T10:02:52.303Z,11.40
2019-03-11T10:05:16.299Z,11.30
2019-03-11T10:07:43.537Z,10.50
2019-03-11T10:10:13.269Z,10.40
2019-03-11T10:12:40.358Z,10.30
2019-03-11T10:15:10.610Z,10.50
2019-03-11T10:17:37.844Z,10.70
2019-03-11T10:20:08.306Z,10.90
2019-03-11T10:22:36.521Z,10.80
2019-03-11T10:25:06.138Z,10.70
2019-03-11T10:27:33.198Z,10.90
2019-03-11T10:30:00.353Z,10.80
2019-03-11T10:32:27.535Z,10.90
2019-03-11T10:34:54.542Z,10.80
2019-03-11T10:37:21.697Z,11.00
2019-03-11T10:39:48.825Z,10.90
2019-03-11T10:42:16.042Z,11.20
2019-03-11T10:44:47.345Z,11.10
2019-03-11T10:47:14.486Z,11.20
2019-03-11T10:49:41.607Z,11.40
2019-03-11T10:52:08.789Z,11.50
2019-03-11T10:54:35.975Z,11.30
2019-03-11T10:57:03.198Z,11.40
2019-03-11T10:59:30.289Z,11.40
2019-03-11T11:01:57.439Z,11.00
2019-03-11T11:04:24.477Z,11.40
2019-03-11T11:06:51.551Z,11.20
2019-03-11T11:09:18.582Z,11.20
2019-03-11T11:11:48.296Z,11.20
2019-03-11T11:14:15.398Z,11.20
2019-03-11T11:16:42.502Z,11.40
2019-03-11T11:19:09.530Z,11.60
2019-03-11T11:21:36.638Z,11.80
2019-03-11T11:24:03.682Z,11.80
2019-03-11T11:26:31.960Z,11.80
2019-03-11T11:28:58.999Z,11.70
2019-03-11T11:31:26.051Z,11.70
2019-03-11T11:33:53.093Z,11.70
2019-03-11T11:36:20.398Z,11.40
2019-03-11T11:38:47.444Z,11.00
2019-03-11T11:41:16.449Z,11.00
2019-03-11T11:43:43.458Z,10.90
2019-03-11T11:46:10.551Z,11.10
2019-03-11T11:48:37.580Z,11.10
2019-03-11T11:51:04.664Z,10.60
2019-03-11T11:53:31.721Z,10.70
2019-03-11T11:55:58.822Z,10.80
2019-03-11T11:58:25.837Z,10.60
2019-03-11T12:00:52.938Z,10.60
2019-03-11T12:03:19.975Z,10.50
2019-03-11T12:05:47.075Z,10.60
2019-03-11T12:08:14.099Z,10.60
2019-03-11T12:10:41.225Z,10.60
2019-03-11T12:13:08.233Z,10.60
2019-03-11T12:15:35.325Z,10.70
2019-03-11T12:18:02.331Z,10.70
2019-03-11T12:20:30.243Z,10.80
2019-03-11T12:22:57.770Z,10.90
2019-03-11T12:25:24.813Z,10.90
2019-03-11T12:27:54.095Z,10.70
2019-03-11T12:30:31.342Z,10.70
2019-03-11T12:32:58.453Z,10.70
2019-03-11T12:35:25.701Z,10.90
2019-03-11T12:37:53.009Z,10.90
2019-03-11T12:40:20.061Z,11.10
2019-03-11T12:42:47.154Z,10.90
2019-03-11T12:45:15.402Z,10.70
2019-03-11T12:47:42.513Z,10.50
2019-03-11T12:50:20.825Z,10.40
2019-03-11T12:52:48.955Z,10.30
2019-03-11T12:55:16.109Z,10.30
2019-03-11T12:57:43.215Z,10.20
2019-03-11T13:00:12.761Z,10.00
2019-03-11T13:02:39.972Z,10.10
2019-03-11T13:05:08.700Z,10.10
2019-03-11T13:07:38.814Z,9.90
2019-03-11T13:10:15.341Z,9.90
2019-03-11T13:12:42.425Z,9.90
2019-03-11T13:15:11.276Z,9.90
2019-03-11T13:17:38.598Z,9.90
2019-03-11T13:20:32.171Z,9.40
2019-03-11T13:22:59.458Z,10.00
2019-03-11T13:25:26.514Z,9.80
2019-03-11T13:27:55.906Z,9.30
2019-03-11T13:30:22.953Z,9.30
2019-03-11T13:32:50.066Z,9.30
2019-03-11T13:35:17.093Z,9.60
2019-03-11T13:37:44.198Z,9.90
2019-03-11T13:40:15.161Z,10.10
2019-03-11T13:42:42.285Z,10.10
2019-03-11T13:45:15.661Z,9.80
2019-03-11T13:47:42.739Z,9.90
2019-03-11T13:50:17.211Z,9.50
2019-03-11T13:52:44.464Z,9.70
2019-03-11T13:55:13.615Z,9.90
2019-03-11T13:57:40.725Z,9.90
2019-03-11T14:00:13.154Z,10.10
2019-03-11T14:02:40.649Z,10.10
2019-03-11T14:05:08.635Z,10.10
2019-03-11T14:07:35.696Z,9.90
2019-03-11T14:10:04.489Z,10.10
2019-03-11T14:12:31.511Z,10.00
2019-03-11T14:14:58.573Z,9.90
2019-03-11T14:17:25.618Z,10.10
2019-03-11T14:19:52.734Z,10.20
2019-03-11T14:22:19.804Z,10.40
2019-03-11T14:24:46.872Z,10.40
2019-03-11T14:27:13.977Z,10.40
2019-03-11T14:29:41.043Z,10.40
2019-03-11T14:32:08.286Z,10.60
2019-03-11T14:34:36.022Z,10.60
2019-03-11T14:37:03.222Z,10.30
2019-03-11T14:39:31.690Z,10.00
2019-03-11T14:41:58.760Z,10.20
2019-03-11T14:44:25.838Z,10.10
2019-03-11T14:46:56.174Z,10.30
2019-03-11T14:49:23.292Z,10.60
2019-03-11T14:51:51.513Z,10.60
2019-03-11T14:54:18.673Z,10.40
2019-03-11T14:56:45.622Z,10.40
2019-03-11T14:59:12.714Z,10.50
2019-03-11T15:01:40.807Z,10.60
2019-03-11T15:04:07.942Z,10.40
2019-03-11T15:06:36.134Z,10.30
2019-03-11T15:09:05.522Z,10.20
2019-03-11T15:11:34.689Z,9.90
2019-03-11T15:14:02.541Z,9.70
2019-03-11T15:16:29.633Z,9.70
2019-03-11T15:18:56.870Z,9.50
2019-03-11T15:21:24.687Z,9.20
2019-03-11T15:23:51.816Z,9.00
2019-03-11T15:26:25.057Z,8.90
2019-03-11T15:28:48.063Z,9.10
2019-03-11T15:31:15.234Z,9.10
2019-03-11T15:33:42.274Z,8.90
2019-03-11T15:36:09.453Z,8.80
2019-03-11T15:38:36.531Z,8.60
2019-03-11T15:41:06.206Z,8.50
2019-03-11T15:43:33.361Z,8.50
2019-03-11T15:46:00.361Z,8.40
2019-03-11T15:48:27.457Z,8.10
2019-03-11T15:50:54.432Z,8.00
2019-03-11T15:53:21.514Z,8.00
2019-03-11T15:55:48.599Z,7.90
2019-03-11T15:58:15.711Z,7.90
2019-03-11T16:00:42.745Z,7.70
2019-03-11T16:03:09.830Z,7.70
2019-03-11T16:05:36.966Z,7.80
2019-03-11T16:08:04.085Z,7.80
2019-03-11T16:10:31.137Z,7.60
2019-03-11T16:12:58.284Z,7.60
2019-03-11T16:15:25.295Z,7.60
2019-03-11T16:17:52.399Z,7.50
2019-03-11T16:20:21.018Z,7.40
2019-03-11T16:22:48.142Z,7.40
2019-03-11T16:25:15.902Z,7.40
2019-03-11T16:27:43.010Z,7.40
2019-03-11T16:30:18.751Z,7.40
2019-03-11T16:32:58.502Z,7.20
2019-03-11T16:35:14.616Z,7.20
2019-03-11T16:37:41.713Z,7.10
2019-03-11T16:40:12.058Z,7.00
2019-03-11T16:42:39.258Z,7.00
2019-03-11T16:45:09.113Z,6.90
2019-03-11T16:47:36.124Z,6.90
2019-03-11T16:50:06.077Z,6.80
2019-03-11T16:52:33.178Z,6.70
2019-03-11T16:55:00.357Z,6.70
2019-03-11T16:57:27.390Z,6.70
2019-03-11T16:59:54.445Z,6.60
2019-03-11T17:02:21.519Z,6.60
2019-03-11T17:04:48.513Z,6.70
2019-03-11T17:07:15.601Z,6.60
2019-03-11T17:09:42.629Z,6.60
2019-03-11T17:12:09.791Z,6.50
2019-03-11T17:14:36.788Z,6.40
2019-03-11T17:17:03.920Z,6.40
2019-03-11T17:19:33.298Z,6.30
2019-03-11T17:22:00.404Z,6.20
2019-03-11T17:24:27.401Z,6.20
2019-03-11T17:26:54.533Z,6.20
2019-03-11T17:29:21.516Z,6.20
2019-03-11T17:31:48.684Z,6.10
2019-03-11T17:34:16.498Z,6.10
2019-03-11T17:36:45.352Z,6.10
2019-03-11T17:39:12.366Z,6.10
2019-03-11T17:41:39.529Z,6.00
2019-03-11T17:44:06.661Z,5.90
2019-03-11T17:46:33.824Z,5.90
2019-03-11T17:49:00.893Z,5.80
2019-03-11T17:51:28.010Z,5.70
2019-03-11T17:53:57.342Z,5.80
2019-03-11T17:56:24.478Z,5.80
2019-03-11T17:58:51.517Z,5.70
2019-03-11T18:01:18.622Z,5.70
2019-03-11T18:03:45.759Z,5.50
2019-03-11T18:06:12.933Z,5.50
2019-03-11T18:08:41.020Z,5.40
2019-03-11T18:11:08.080Z,5.50
2019-03-11T18:13:35.404Z,5.50
2019-03-11T18:16:03.305Z,5.50
2019-03-11T18:18:33.463Z,5.50
2019-03-11T18:20:59.857Z,5.40
2019-03-11T18:23:27.173Z,5.30
2019-03-11T18:25:55.421Z,5.20
2019-03-11T18:28:22.518Z,5.20
2019-03-11T18:30:51.611Z,5.20
2019-03-11T18:33:18.397Z,5.30
2019-03-11T18:35:45.496Z,5.30
2019-03-11T18:38:12.569Z,5.20
2019-03-11T18:40:39.801Z,5.20
2019-03-11T18:43:07.002Z,5.20
2019-03-11T18:45:34.363Z,5.40
2019-03-11T18:48:01.432Z,5.20
2019-03-11T18:50:28.565Z,5.20
2019-03-11T18:52:55.674Z,5.20
2019-03-11T18:55:22.901Z,5.30
2019-03-11T18:57:50.137Z,5.20
2019-03-11T19:00:18.680Z,5.20
2019-03-11T19:02:45.762Z,5.20
2019-03-11T19:05:17.895Z,5.10
2019-03-11T19:07:45.053Z,5.10
2019-03-11T19:10:13.997Z,5.10
2019-03-11T19:12:41.037Z,5.00
2019-03-11T19:15:10.913Z,5.00
2019-03-11T19:17:38.055Z,5.10
2019-03-11T19:20:08.649Z,5.20
2019-03-11T19:22:35.995Z,5.10
2019-03-11T19:25:04.227Z,5.20
2019-03-11T19:27:31.406Z,5.10
2019-03-11T19:29:58.515Z,5.20
2019-03-11T19:32:27.021Z,5.30
2019-03-11T19:34:54.149Z,5.30
2019-03-11T19:37:21.298Z,5.30
2019-03-11T19:39:48.331Z,5.30
2019-03-11T19:42:15.441Z,5.30
2019-03-11T19:44:43.928Z,5.30
2019-03-11T19:47:11.057Z,5.40
2019-03-11T19:49:38.123Z,5.30
2019-03-11T19:52:05.177Z,5.20
2019-03-11T19:54:32.541Z,5.20
2019-03-11T19:56:59.713Z,5.20
2019-03-11T19:59:27.893Z,5.20
2019-03-11T20:01:54.935Z,5.10
2019-03-11T20:04:22.296Z,5.10
2019-03-11T20:06:50.376Z,5.10
2019-03-11T20:09:19.143Z,5.10
2019-03-11T20:11:46.312Z,5.30
2019-03-11T20:14:13.662Z,5.00
2019-03-11T20:16:40.773Z,5.00
2019-03-11T20:19:07.950Z,5.00
2019-03-11T20:21:35.359Z,5.00
2019-03-11T20:24:03.031Z,5.00
2019-03-11T20:26:30.318Z,5.00
2019-03-11T20:28:58.705Z,5.00
2019-03-11T20:31:25.856Z,5.00
2019-03-11T20:33:52.893Z,5.00
2019-03-11T20:36:21.408Z,4.90
2019-03-11T20:38:50.537Z,4.80
2019-03-11T20:41:19.041Z,4.80
2019-03-11T20:43:46.154Z,4.70
2019-03-11T20:46:13.418Z,4.70
2019-03-11T20:48:41.552Z,4.60
2019-03-11T20:51:08.894Z,4.60
2019-03-11T20:53:36.064Z,4.60
2019-03-11T20:56:03.442Z,4.60
2019-03-11T20:58:31.073Z,4.50
2019-03-11T21:00:58.294Z,4.50
2019-03-11T21:03:26.412Z,4.40
2019-03-11T21:05:57.086Z,4.30
2019-03-11T21:08:24.319Z,4.20
2019-03-11T21:10:51.358Z,4.20
2019-03-11T21:13:18.442Z,4.30
2019-03-11T21:15:45.597Z,4.20
2019-03-11T21:18:12.742Z,4.20
2019-03-11T21:20:40.917Z,4.20
2019-03-11T21:23:07.975Z,4.30
2019-03-11T21:25:35.458Z,4.30
2019-03-11T21:28:02.809Z,4.30
2019-03-11T21:30:30.075Z,4.30
2019-03-11T21:32:57.507Z,4.40
2019-03-11T21:35:27.433Z,4.40
2019-03-11T21:37:54.636Z,4.40
2019-03-11T21:40:22.551Z,4.50
2019-03-11T21:42:50.142Z,4.50
2019-03-11T21:45:17.591Z,4.50
2019-03-11T21:47:45.008Z,4.50
2019-03-11T21:50:18.004Z,4.50
2019-03-11T21:52:45.083Z,4.50
2019-03-11T21:55:12.164Z,4.50
2019-03-11T21:57:39.223Z,4.50
2019-03-11T22:00:12.877Z,4.50
2019-03-11T22:02:40.113Z,4.50
2019-03-11T22:05:07.427Z,4.50
2019-03-11T22:07:34.516Z,4.60
2019-03-11T22:10:01.613Z,4.50
2019-03-11T22:12:28.693Z,4.60
2019-03-11T22:14:56.855Z,4.60
2019-03-11T22:17:28.439Z,4.50
2019-03-11T22:19:55.709Z,4.60
2019-03-11T22:22:23.968Z,5.00
2019-03-11T22:24:51.164Z,4.60
2019-03-11T22:27:18.182Z,4.60
2019-03-11T22:29:45.698Z,4.50
2019-03-11T22:32:12.752Z,4.50
2019-03-11T22:34:40.005Z,4.50
2019-03-11T22:37:07.498Z,4.50
2019-03-11T22:39:34.678Z,4.50
2019-03-11T22:42:01.764Z,4.50
2019-03-11T22:44:28.916Z,4.50
2019-03-11T22:46:56.019Z,4.50
2019-03-11T22:49:23.149Z,4.50
2019-03-11T22:51:52.266Z,4.40
2019-03-11T22:54:19.385Z,4.30
2019-03-11T22:56:46.402Z,4.30
2019-03-11T22:59:14.588Z,4.30
2019-03-11T23:01:41.814Z,3.90
2019-03-11T23:04:08.814Z,4.20
2019-03-11T23:06:35.850Z,4.20
2019-03-11T23:09:04.757Z,4.20
2019-03-11T23:11:33.538Z,4.20
2019-03-11T23:14:00.604Z,4.20
2019-03-11T23:16:27.641Z,4.20
2019-03-11T23:18:54.645Z,4.20
2019-03-11T23:21:21.681Z,4.20
2019-03-11T23:23:48.843Z,4.30
2019-03-11T23:26:15.941Z,4.30
2019-03-11T23:28:42.987Z,4.30
2019-03-11T23:31:10.078Z,4.30
2019-03-11T23:33:43.329Z,4.30
2019-03-11T23:36:10.375Z,3.70
2019-03-11T23:38:37.465Z,4.40
2019-03-11T23:41:04.729Z,4.40
2019-03-11T23:43:31.984Z,4.40
2019-03-11T23:45:59.177Z,4.40
2019-03-11T23:48:26.339Z,4.40
2019-03-11T23:50:53.631Z,4.40
2019-03-11T23:53:20.712Z,4.30
2019-03-11T23:55:47.777Z,4.30
2019-03-11T23:58:17.177Z,4.30
